logo dgac
Martes 23 de Julio del 2019
Buscar por aerodromo o helipuerto
Ingrese nombre de aeródromo, localidad o designador OACI:
METAR del 23-07-2019 a las 10:00 UTC
METAR SCAT 231000Z AUTO 27006KT 9999 NDV // ///036 10/08 Q1021
Nan: AUTO
Viento: dirección 270 grados, velocidad 6 nudos
Visibilidad: 10 km o más
Nan: NDV
Nan: //
Nan: ///036
Temperatura: 10 °C
Rocío: 8 °C
Humedad_relativa: 87%
Presión: 1021 hPa
SPECI del 23-07-2019 a las 09:28 UTC
SPECI SCAT 230928Z AUTO 29006KT 9999 NDV // ///015 10/08 Q1021
Nan: AUTO
Viento: dirección 290 grados, velocidad 6 nudos
Visibilidad: 10 km o más
Nan: NDV
Nan: //
Nan: ///015
Temperatura: 10 °C
Rocío: 8 °C
Humedad_relativa: 87%
Presión: 1021 hPa
SPECI del 23-07-2019 a las 09:26 UTC
SPECI SCAT 230926Z AUTO 29006KT 9999 // ///015 10/08 Q1021
Nan: AUTO
Viento: dirección 290 grados, velocidad 6 nudos
Visibilidad: 10 km o más
Nan: //
Nan: ///015
Temperatura: 10 °C
Rocío: 8 °C
Humedad_relativa: 87%
Presión: 1021 hPa
SPECI del 23-07-2019 a las 09:14 UTC
SPECI SCAT 230914Z AUTO 28007KT 9999 NDV // ///033 10/08 Q1021
Nan: AUTO
Viento: dirección 280 grados, velocidad 7 nudos
Visibilidad: 10 km o más
Nan: NDV
Nan: //
Nan: ///033
Temperatura: 10 °C
Rocío: 8 °C
Humedad_relativa: 87%
Presión: 1021 hPa
METAR del 23-07-2019 a las 09:00 UTC
METAR SCAT 230900Z AUTO 30008KT 9999 NDV // ///013 10/08 Q1021
Nan: AUTO
Viento: dirección 300 grados, velocidad 8 nudos
Visibilidad: 10 km o más
Nan: NDV
Nan: //
Nan: ///013
Temperatura: 10 °C
Rocío: 8 °C
Humedad_relativa: 87%
Presión: 1021 hPa
SPECI del 23-07-2019 a las 08:43 UTC
SPECI SCAT 230843Z AUTO 29008KT 9999 NDV // ///013 11/08 Q1021
Nan: AUTO
Viento: dirección 290 grados, velocidad 8 nudos
Visibilidad: 10 km o más
Nan: NDV
Nan: //
Nan: ///013
Temperatura: 11 °C
Rocío: 8 °C
Humedad_relativa: 82%
Presión: 1021 hPa
SPECI del 23-07-2019 a las 08:43 UTC
SPECI SCAT 230843Z AUTO 29008KT 9999 NDV // ///013 11/08 Q1021
Nan: AUTO
Viento: dirección 290 grados, velocidad 8 nudos
Visibilidad: 10 km o más
Nan: NDV
Nan: //
Nan: ///013
Temperatura: 11 °C
Rocío: 8 °C
Humedad_relativa: 82%
Presión: 1021 hPa
METAR del 23-07-2019 a las 08:00 UTC
METAR SCAT 230800Z AUTO 29007KT 9999 // ///021 10/07 Q1021
Nan: AUTO
Viento: dirección 290 grados, velocidad 7 nudos
Visibilidad: 10 km o más
Nan: //
Nan: ///021
Temperatura: 10 °C
Rocío: 7 °C
Humedad_relativa: 82%
Presión: 1021 hPa
METAR del 23-07-2019 a las 08:00 UTC
METAR SCAT 230800Z AUTO 29007KT 9999 // ///021 10/07 Q1021
Nan: AUTO
Viento: dirección 290 grados, velocidad 7 nudos
Visibilidad: 10 km o más
Nan: //
Nan: ///021
Temperatura: 10 °C
Rocío: 7 °C
Humedad_relativa: 82%
Presión: 1021 hPa
METAR del 23-07-2019 a las 07:00 UTC
METAR SCAT 230700Z AUTO 28008KT 9999 // ///030 10/07 Q1020
Nan: AUTO
Viento: dirección 280 grados, velocidad 8 nudos
Visibilidad: 10 km o más
Nan: //
Nan: ///030
Temperatura: 10 °C
Rocío: 7 °C
Humedad_relativa: 82%
Presión: 1020 hPa